sensor_id;sensor_type;location;lat;lon;timestamp;temperature;humidity
1011;DHT22;494;48.744;10.106;2023-09-19T00:27:33;18.50;1.00
1011;DHT22;494;48.744;10.106;2023-09-19T00:30:55;18.50;1.00
1011;DHT22;494;48.744;10.106;2023-09-19T00:33:53;18.50;1.00
1011;DHT22;494;48.744;10.106;2023-09-19T00:37:15;18.50;1.00
1011;DHT22;494;48.744;10.106;2023-09-19T00:40:06;18.60;1.00
1011;DHT22;494;48.744;10.106;2023-09-19T00:45:57;18.70;1.00
1011;DHT22;494;48.744;10.106;2023-09-19T00:48:57;18.60;1.00
1011;DHT22;494;48.744;10.106;2023-09-19T00:52:03;18.70;1.00
1011;DHT22;494;48.744;10.106;2023-09-19T00:55:52;18.70;1.00
1011;DHT22;494;48.744;10.106;2023-09-19T01:52:51;18.10;1.00
1011;DHT22;494;48.744;10.106;2023-09-19T01:55:48;18.30;1.00
1011;DHT22;494;48.744;10.106;2023-09-19T01:58:27;18.40;1.00
1011;DHT22;494;48.744;10.106;2023-09-19T02:01:17;18.40;1.00
1011;DHT22;494;48.744;10.106;2023-09-19T02:04:38;18.50;1.00
1011;DHT22;494;48.744;10.106;2023-09-19T03:04:50;19.00;1.00
1011;DHT22;494;48.744;10.106;2023-09-19T03:07:47;19.00;1.00
1011;DHT22;494;48.744;10.106;2023-09-19T03:10:33;18.90;1.00
1011;DHT22;494;48.744;10.106;2023-09-19T03:13:45;19.00;1.00
1011;DHT22;494;48.744;10.106;2023-09-19T03:16:35;18.90;1.00
1011;DHT22;494;48.744;10.106;2023-09-19T03:19:23;18.90;1.00
1011;DHT22;494;48.744;10.106;2023-09-19T03:26:25;18.70;1.00
1011;DHT22;494;48.744;10.106;2023-09-19T03:29:23;18.50;1.00
1011;DHT22;494;48.744;10.106;2023-09-19T03:32:23;18.60;1.00
1011;DHT22;494;48.744;10.106;2023-09-19T03:35:36;18.40;1.00
1011;DHT22;494;48.744;10.106;2023-09-19T03:39:12;18.40;1.00
1011;DHT22;494;48.744;10.106;2023-09-19T03:42:28;18.40;1.00
1011;DHT22;494;48.744;10.106;2023-09-19T03:45:27;18.30;1.00
1011;DHT22;494;48.744;10.106;2023-09-19T03:48:28;18.30;1.00
1011;DHT22;494;48.744;10.106;2023-09-19T03:51:05;18.30;1.00
1011;DHT22;494;48.744;10.106;2023-09-19T03:53:54;18.20;1.00
1011;DHT22;494;48.744;10.106;2023-09-19T03:56:51;18.10;1.00
1011;DHT22;494;48.744;10.106;2023-09-19T04:03:27;18.20;1.00
1011;DHT22;494;48.744;10.106;2023-09-19T04:06:32;18.20;1.00
1011;DHT22;494;48.744;10.106;2023-09-19T04:10:10;18.30;1.00
1011;DHT22;494;48.744;10.106;2023-09-19T04:13:27;18.30;1.00
1011;DHT22;494;48.744;10.106;2023-09-19T04:23:56;18.50;1.00
1011;DHT22;494;48.744;10.106;2023-09-19T04:26:45;18.50;1.00
1011;DHT22;494;48.744;10.106;2023-09-19T04:30:25;18.30;1.00
1011;DHT22;494;48.744;10.106;2023-09-19T04:33:54;18.30;1.00
1011;DHT22;494;48.744;10.106;2023-09-19T04:36:55;18.40;1.00
1011;DHT22;494;48.744;10.106;2023-09-19T04:47:15;18.60;1.00
1011;DHT22;494;48.744;10.106;2023-09-19T04:50:15;18.60;1.00
1011;DHT22;494;48.744;10.106;2023-09-19T04:53:09;18.60;1.00
1011;DHT22;494;48.744;10.106;2023-09-19T04:55:54;18.60;1.00
1011;DHT22;494;48.744;10.106;2023-09-19T04:58:57;18.60;1.00
1011;DHT22;494;48.744;10.106;2023-09-19T05:02:20;18.50;1.00
1011;DHT22;494;48.744;10.106;2023-09-19T05:05:28;18.60;1.00
1011;DHT22;494;48.744;10.106;2023-09-19T05:08:23;18.60;1.00
1011;DHT22;494;48.744;10.106;2023-09-19T05:10:55;18.50;1.00
1011;DHT22;494;48.744;10.106;2023-09-19T05:13:42;18.50;1.00
1011;DHT22;494;48.744;10.106;2023-09-19T05:16:14;18.50;1.00
1011;DHT22;494;48.744;10.106;2023-09-19T05:19:00;18.50;1.00
1011;DHT22;494;48.744;10.106;2023-09-19T05:21:31;18.60;1.00
1011;DHT22;494;48.744;10.106;2023-09-19T05:24:03;18.60;1.00
1011;DHT22;494;48.744;10.106;2023-09-19T05:26:37;18.60;1.00
1011;DHT22;494;48.744;10.106;2023-09-19T05:29:07;18.70;1.00
1011;DHT22;494;48.744;10.106;2023-09-19T05:31:40;18.70;1.00
1011;DHT22;494;48.744;10.106;2023-09-19T05:34:17;18.70;1.00
1011;DHT22;494;48.744;10.106;2023-09-19T05:36:48;18.70;1.00
1011;DHT22;494;48.744;10.106;2023-09-19T05:39:17;18.70;1.00
1011;DHT22;494;48.744;10.106;2023-09-19T05:42:20;18.70;1.00
1011;DHT22;494;48.744;10.106;2023-09-19T05:45:17;18.70;1.00
1011;DHT22;494;48.744;10.106;2023-09-19T05:47:53;18.70;1.00
1011;DHT22;494;48.744;10.106;2023-09-19T05:50:41;18.80;1.00
1011;DHT22;494;48.744;10.106;2023-09-19T05:53:26;18.80;1.00
1011;DHT22;494;48.744;10.106;2023-09-19T05:55:57;18.90;1.00
1011;DHT22;494;48.744;10.106;2023-09-19T05:58:44;18.90;1.00
1011;DHT22;494;48.744;10.106;2023-09-19T06:01:16;19.00;1.00
1011;DHT22;494;48.744;10.106;2023-09-19T06:03:49;19.10;1.00
1011;DHT22;494;48.744;10.106;2023-09-19T06:06:36;19.20;1.00
1011;DHT22;494;48.744;10.106;2023-09-19T06:09:10;19.30;1.00
1011;DHT22;494;48.744;10.106;2023-09-19T06:11:41;19.40;1.00
1011;DHT22;494;48.744;10.106;2023-09-19T06:14:10;19.50;1.00
1011;DHT22;494;48.744;10.106;2023-09-19T06:16:40;19.60;1.00
1011;DHT22;494;48.744;10.106;2023-09-19T06:19:10;19.80;1.00
1011;DHT22;494;48.744;10.106;2023-09-19T06:21:49;19.80;1.00
1011;DHT22;494;48.744;10.106;2023-09-19T06:24:20;19.90;1.00
1011;DHT22;494;48.744;10.106;2023-09-19T06:26:53;19.90;1.00
1011;DHT22;494;48.744;10.106;2023-09-19T06:29:22;19.90;1.00
1011;DHT22;494;48.744;10.106;2023-09-19T06:31:52;19.90;1.00
1011;DHT22;494;48.744;10.106;2023-09-19T06:34:21;19.90;1.00
1011;DHT22;494;48.744;10.106;2023-09-19T06:36:53;19.90;1.00
1011;DHT22;494;48.744;10.106;2023-09-19T06:39:23;19.90;1.00
1011;DHT22;494;48.744;10.106;2023-09-19T06:41:57;19.90;1.00
1011;DHT22;494;48.744;10.106;2023-09-19T06:44:29;19.90;1.00
1011;DHT22;494;48.744;10.106;2023-09-19T06:47:00;19.90;1.00
1011;DHT22;494;48.744;10.106;2023-09-19T06:49:31;19.90;1.00
1011;DHT22;494;48.744;10.106;2023-09-19T06:52:09;19.80;1.00
1011;DHT22;494;48.744;10.106;2023-09-19T06:54:38;19.40;1.00
1011;DHT22;494;48.744;10.106;2023-09-19T06:57:09;19.50;1.00
1011;DHT22;494;48.744;10.106;2023-09-19T06:59:40;19.50;1.00
1011;DHT22;494;48.744;10.106;2023-09-19T07:02:10;19.50;1.00
1011;DHT22;494;48.744;10.106;2023-09-19T07:04:42;19.50;1.00
1011;DHT22;494;48.744;10.106;2023-09-19T07:07:16;19.40;1.00
1011;DHT22;494;48.744;10.106;2023-09-19T07:09:49;19.30;1.00
1011;DHT22;494;48.744;10.106;2023-09-19T07:12:18;19.10;1.00
1011;DHT22;494;48.744;10.106;2023-09-19T07:14:52;19.10;1.00
1011;DHT22;494;48.744;10.106;2023-09-19T07:17:22;19.10;1.00
1011;DHT22;494;48.744;10.106;2023-09-19T07:19:51;18.80;1.00
1011;DHT22;494;48.744;10.106;2023-09-19T07:22:23;18.20;1.00
1011;DHT22;494;48.744;10.106;2023-09-19T07:24:52;17.90;1.00
1011;DHT22;494;48.744;10.106;2023-09-19T07:27:22;17.70;1.00
1011;DHT22;494;48.744;10.106;2023-09-19T07:29:52;17.60;1.00
1011;DHT22;494;48.744;10.106;2023-09-19T07:32:22;17.70;1.00
1011;DHT22;494;48.744;10.106;2023-09-19T07:34:53;17.70;1.00
1011;DHT22;494;48.744;10.106;2023-09-19T07:37:24;17.60;1.00
1011;DHT22;494;48.744;10.106;2023-09-19T07:40:01;17.60;1.00
1011;DHT22;494;48.744;10.106;2023-09-19T07:42:35;17.40;1.00
1011;DHT22;494;48.744;10.106;2023-09-19T07:45:07;17.10;1.00
1011;DHT22;494;48.744;10.106;2023-09-19T07:47:44;16.90;1.00
1011;DHT22;494;48.744;10.106;2023-09-19T07:50:14;16.80;1.00
1011;DHT22;494;48.744;10.106;2023-09-19T07:52:52;16.70;1.00
1011;DHT22;494;48.744;10.106;2023-09-19T07:55:24;16.70;1.00
1011;DHT22;494;48.744;10.106;2023-09-19T07:57:59;16.60;1.00
1011;DHT22;494;48.744;10.106;2023-09-19T08:00:32;16.70;1.00
1011;DHT22;494;48.744;10.106;2023-09-19T08:03:02;16.80;1.00
1011;DHT22;494;48.744;10.106;2023-09-19T08:05:43;16.90;1.00
1011;DHT22;494;48.744;10.106;2023-09-19T08:08:16;17.20;1.00
1011;DHT22;494;48.744;10.106;2023-09-19T08:10:46;17.50;1.00
1011;DHT22;494;48.744;10.106;2023-09-19T08:13:23;17.60;1.00
1011;DHT22;494;48.744;10.106;2023-09-19T08:15:52;17.70;1.00
1011;DHT22;494;48.744;10.106;2023-09-19T08:18:23;17.80;1.00
1011;DHT22;494;48.744;10.106;2023-09-19T08:20:56;18.00;1.00
1011;DHT22;494;48.744;10.106;2023-09-19T08:23:31;18.10;1.00
1011;DHT22;494;48.744;10.106;2023-09-19T08:26:02;18.00;1.00
1011;DHT22;494;48.744;10.106;2023-09-19T08:28:42;18.00;1.00
1011;DHT22;494;48.744;10.106;2023-09-19T08:31:22;18.10;1.00
1011;DHT22;494;48.744;10.106;2023-09-19T08:33:53;18.10;1.00
1011;DHT22;494;48.744;10.106;2023-09-19T08:36:23;18.10;1.00
1011;DHT22;494;48.744;10.106;2023-09-19T08:38:53;17.90;1.00
1011;DHT22;494;48.744;10.106;2023-09-19T08:41:23;17.90;1.00
1011;DHT22;494;48.744;10.106;2023-09-19T08:43:53;17.80;1.00
1011;DHT22;494;48.744;10.106;2023-09-19T08:46:25;17.90;1.00
1011;DHT22;494;48.744;10.106;2023-09-19T08:49:03;18.10;1.00
1011;DHT22;494;48.744;10.106;2023-09-19T08:51:41;18.40;1.00
1011;DHT22;494;48.744;10.106;2023-09-19T08:54:22;18.60;1.00
1011;DHT22;494;48.744;10.106;2023-09-19T08:56:54;18.70;1.00
1011;DHT22;494;48.744;10.106;2023-09-19T08:59:32;18.80;1.00
1011;DHT22;494;48.744;10.106;2023-09-19T09:02:03;19.00;1.00
1011;DHT22;494;48.744;10.106;2023-09-19T09:04:33;19.50;1.00
1011;DHT22;494;48.744;10.106;2023-09-19T09:07:18;19.60;1.00
1011;DHT22;494;48.744;10.106;2023-09-19T09:09:51;19.80;1.00
1011;DHT22;494;48.744;10.106;2023-09-19T09:12:21;20.00;1.00
1011;DHT22;494;48.744;10.106;2023-09-19T09:14:51;20.20;1.00
1011;DHT22;494;48.744;10.106;2023-09-19T09:17:23;20.60;1.00
1011;DHT22;494;48.744;10.106;2023-09-19T09:19:53;20.90;1.00
1011;DHT22;494;48.744;10.106;2023-09-19T09:22:27;21.00;1.00
1011;DHT22;494;48.744;10.106;2023-09-19T09:24:59;21.20;1.00
1011;DHT22;494;48.744;10.106;2023-09-19T09:27:31;21.60;1.00
1011;DHT22;494;48.744;10.106;2023-09-19T09:30:07;22.10;1.00
1011;DHT22;494;48.744;10.106;2023-09-19T09:32:41;22.50;1.00
1011;DHT22;494;48.744;10.106;2023-09-19T09:35:31;22.30;1.00
1011;DHT22;494;48.744;10.106;2023-09-19T09:38:00;21.70;1.00
1011;DHT22;494;48.744;10.106;2023-09-19T09:40:50;21.20;1.00
1011;DHT22;494;48.744;10.106;2023-09-19T09:43:29;20.90;1.00
1011;DHT22;494;48.744;10.106;2023-09-19T09:46:07;20.80;1.00
1011;DHT22;494;48.744;10.106;2023-09-19T09:49:01;20.60;1.00
1011;DHT22;494;48.744;10.106;2023-09-19T09:51:44;20.70;1.00
1011;DHT22;494;48.744;10.106;2023-09-19T09:54:25;20.80;1.00
1011;DHT22;494;48.744;10.106;2023-09-19T09:57:04;20.80;1.00
1011;DHT22;494;48.744;10.106;2023-09-19T09:59:48;20.80;1.00
1011;DHT22;494;48.744;10.106;2023-09-19T10:02:25;21.00;1.00
1011;DHT22;494;48.744;10.106;2023-09-19T10:05:12;21.50;1.00
1011;DHT22;494;48.744;10.106;2023-09-19T10:07:51;21.40;1.00
1011;DHT22;494;48.744;10.106;2023-09-19T10:10:32;21.50;1.00
1011;DHT22;494;48.744;10.106;2023-09-19T10:13:25;21.50;1.00
1011;DHT22;494;48.744;10.106;2023-09-19T10:16:06;22.00;1.00
1011;DHT22;494;48.744;10.106;2023-09-19T10:18:43;22.30;1.00
1011;DHT22;494;48.744;10.106;2023-09-19T10:21:29;22.20;1.00
1011;DHT22;494;48.744;10.106;2023-09-19T10:24:00;21.90;1.00
1011;DHT22;494;48.744;10.106;2023-09-19T10:26:36;21.80;1.00
1011;DHT22;494;48.744;10.106;2023-09-19T10:29:09;22.10;1.00
1011;DHT22;494;48.744;10.106;2023-09-19T10:31:39;22.60;1.00
1011;DHT22;494;48.744;10.106;2023-09-19T10:34:15;23.20;1.00
1011;DHT22;494;48.744;10.106;2023-09-19T10:36:51;23.80;1.00
1011;DHT22;494;48.744;10.106;2023-09-19T10:39:29;24.20;1.00
1011;DHT22;494;48.744;10.106;2023-09-19T10:42:03;24.60;1.00
1011;DHT22;494;48.744;10.106;2023-09-19T10:44:41;24.30;1.00
1011;DHT22;494;48.744;10.106;2023-09-19T10:47:16;23.80;1.00
1011;DHT22;494;48.744;10.106;2023-09-19T10:49:46;24.20;1.00
1011;DHT22;494;48.744;10.106;2023-09-19T10:52:20;25.00;1.00
1011;DHT22;494;48.744;10.106;2023-09-19T10:54:55;25.60;1.00
1011;DHT22;494;48.744;10.106;2023-09-19T10:57:29;26.00;1.00
1011;DHT22;494;48.744;10.106;2023-09-19T11:00:03;26.30;1.00
1011;DHT22;494;48.744;10.106;2023-09-19T11:03:24;26.40;1.00
1011;DHT22;494;48.744;10.106;2023-09-19T11:06:10;26.90;1.00
1011;DHT22;494;48.744;10.106;2023-09-19T11:08:56;27.10;1.00
1011;DHT22;494;48.744;10.106;2023-09-19T11:11:43;27.50;1.00
1011;DHT22;494;48.744;10.106;2023-09-19T11:14:30;27.80;1.00
1011;DHT22;494;48.744;10.106;2023-09-19T11:17:43;28.00;1.00
1011;DHT22;494;48.744;10.106;2023-09-19T11:20:20;27.90;1.00
1011;DHT22;494;48.744;10.106;2023-09-19T11:23:23;27.60;1.00
1011;DHT22;494;48.744;10.106;2023-09-19T11:25:56;26.90;1.00
1011;DHT22;494;48.744;10.106;2023-09-19T11:28:35;27.10;1.00
1011;DHT22;494;48.744;10.106;2023-09-19T11:31:40;27.30;1.00
1011;DHT22;494;48.744;10.106;2023-09-19T11:34:39;27.80;1.00
1011;DHT22;494;48.744;10.106;2023-09-19T11:40:34;29.10;1.00
1011;DHT22;494;48.744;10.106;2023-09-19T11:43:31;29.90;1.00
1011;DHT22;494;48.744;10.106;2023-09-19T11:46:07;30.30;1.00
1011;DHT22;494;48.744;10.106;2023-09-19T11:48:41;30.60;1.00
1011;DHT22;494;48.744;10.106;2023-09-19T11:51:15;30.70;1.00
1011;DHT22;494;48.744;10.106;2023-09-19T11:53:56;30.20;1.00
1011;DHT22;494;48.744;10.106;2023-09-19T11:56:31;29.80;1.00
1011;DHT22;494;48.744;10.106;2023-09-19T11:59:23;29.80;1.00
1011;DHT22;494;48.744;10.106;2023-09-19T12:02:31;30.20;1.00
1011;DHT22;494;48.744;10.106;2023-09-19T12:05:08;30.40;1.00
1011;DHT22;494;48.744;10.106;2023-09-19T12:08:01;30.60;1.00
1011;DHT22;494;48.744;10.106;2023-09-19T12:10:47;30.90;1.00
1011;DHT22;494;48.744;10.106;2023-09-19T12:13:17;31.50;1.00
1011;DHT22;494;48.744;10.106;2023-09-19T12:15:49;31.60;1.00
1011;DHT22;494;48.744;10.106;2023-09-19T12:18:29;31.60;1.00
1011;DHT22;494;48.744;10.106;2023-09-19T12:21:03;31.80;1.00
1011;DHT22;494;48.744;10.106;2023-09-19T12:23:41;31.30;1.00
1011;DHT22;494;48.744;10.106;2023-09-19T12:26:13;31.10;1.00
1011;DHT22;494;48.744;10.106;2023-09-19T12:28:44;31.20;1.00
1011;DHT22;494;48.744;10.106;2023-09-19T12:31:15;31.50;1.00
1011;DHT22;494;48.744;10.106;2023-09-19T12:33:53;31.60;1.00
1011;DHT22;494;48.744;10.106;2023-09-19T12:36:25;32.00;1.00
1011;DHT22;494;48.744;10.106;2023-09-19T12:39:27;32.30;1.00
1011;DHT22;494;48.744;10.106;2023-09-19T12:42:02;31.90;1.00
1011;DHT22;494;48.744;10.106;2023-09-19T12:44:47;31.70;1.00
1011;DHT22;494;48.744;10.106;2023-09-19T12:47:32;31.70;1.00
1011;DHT22;494;48.744;10.106;2023-09-19T12:50:10;31.80;1.00
1011;DHT22;494;48.744;10.106;2023-09-19T12:52:59;31.80;1.00
1011;DHT22;494;48.744;10.106;2023-09-19T12:55:39;31.00;1.00
1011;DHT22;494;48.744;10.106;2023-09-19T12:58:15;30.50;1.00
1011;DHT22;494;48.744;10.106;2023-09-19T13:01:13;30.40;1.00
1011;DHT22;494;48.744;10.106;2023-09-19T13:04:25;30.80;1.00
1011;DHT22;494;48.744;10.106;2023-09-19T13:06:59;31.60;1.00
1011;DHT22;494;48.744;10.106;2023-09-19T13:09:30;32.10;1.00
1011;DHT22;494;48.744;10.106;2023-09-19T13:12:36;32.30;1.00
1011;DHT22;494;48.744;10.106;2023-09-19T13:15:14;32.30;1.00
1011;DHT22;494;48.744;10.106;2023-09-19T13:17:47;32.10;1.00
1011;DHT22;494;48.744;10.106;2023-09-19T13:20:22;31.70;1.00
1011;DHT22;494;48.744;10.106;2023-09-19T13:23:26;32.10;1.00
1011;DHT22;494;48.744;10.106;2023-09-19T13:26:09;32.40;1.00
1011;DHT22;494;48.744;10.106;2023-09-19T13:28:42;32.60;1.00
1011;DHT22;494;48.744;10.106;2023-09-19T13:31:12;32.80;1.00
1011;DHT22;494;48.744;10.106;2023-09-19T13:33:45;32.80;1.00
1011;DHT22;494;48.744;10.106;2023-09-19T13:36:20;32.00;1.00
1011;DHT22;494;48.744;10.106;2023-09-19T13:38:50;31.50;1.00
1011;DHT22;494;48.744;10.106;2023-09-19T13:41:20;31.30;1.00
1011;DHT22;494;48.744;10.106;2023-09-19T13:43:52;31.40;1.00
1011;DHT22;494;48.744;10.106;2023-09-19T13:46:21;31.40;1.00
1011;DHT22;494;48.744;10.106;2023-09-19T13:48:54;31.80;1.00
1011;DHT22;494;48.744;10.106;2023-09-19T13:51:25;31.60;1.00
1011;DHT22;494;48.744;10.106;2023-09-19T13:53:58;31.10;1.00
1011;DHT22;494;48.744;10.106;2023-09-19T13:56:33;31.20;1.00
1011;DHT22;494;48.744;10.106;2023-09-19T13:59:11;31.80;1.00
1011;DHT22;494;48.744;10.106;2023-09-19T14:01:40;32.50;1.00
1011;DHT22;494;48.744;10.106;2023-09-19T14:04:24;32.80;1.00
1011;DHT22;494;48.744;10.106;2023-09-19T14:06:56;33.10;1.00
1011;DHT22;494;48.744;10.106;2023-09-19T14:09:26;33.30;1.00
1011;DHT22;494;48.744;10.106;2023-09-19T14:12:07;33.80;1.00
1011;DHT22;494;48.744;10.106;2023-09-19T14:15:01;33.40;1.00
1011;DHT22;494;48.744;10.106;2023-09-19T14:17:40;32.10;1.00
1011;DHT22;494;48.744;10.106;2023-09-19T14:20:13;31.20;1.00
1011;DHT22;494;48.744;10.106;2023-09-19T14:22:45;30.20;1.00
1011;DHT22;494;48.744;10.106;2023-09-19T14:25:18;29.70;1.00
1011;DHT22;494;48.744;10.106;2023-09-19T14:28:02;29.00;1.00
1011;DHT22;494;48.744;10.106;2023-09-19T14:30:54;28.60;1.00
1011;DHT22;494;48.744;10.106;2023-09-19T14:33:38;28.10;1.00
1011;DHT22;494;48.744;10.106;2023-09-19T14:36:10;27.60;1.00
1011;DHT22;494;48.744;10.106;2023-09-19T14:38:45;27.30;1.00
1011;DHT22;494;48.744;10.106;2023-09-19T14:41:15;27.90;1.00
1011;DHT22;494;48.744;10.106;2023-09-19T14:43:46;28.50;1.00
1011;DHT22;494;48.744;10.106;2023-09-19T14:46:45;29.30;1.00
1011;DHT22;494;48.744;10.106;2023-09-19T14:49:28;30.30;1.00
1011;DHT22;494;48.744;10.106;2023-09-19T14:51:57;31.10;1.00
1011;DHT22;494;48.744;10.106;2023-09-19T14:54:33;31.50;1.00
1011;DHT22;494;48.744;10.106;2023-09-19T14:57:18;31.80;1.00
1011;DHT22;494;48.744;10.106;2023-09-19T14:59:52;32.10;1.00
1011;DHT22;494;48.744;10.106;2023-09-19T15:02:25;32.50;1.00
1011;DHT22;494;48.744;10.106;2023-09-19T15:05:09;32.50;1.00
1011;DHT22;494;48.744;10.106;2023-09-19T15:07:41;32.20;1.00
1011;DHT22;494;48.744;10.106;2023-09-19T15:10:17;31.80;1.00
1011;DHT22;494;48.744;10.106;2023-09-19T15:12:51;31.20;1.00
1011;DHT22;494;48.744;10.106;2023-09-19T15:15:21;30.70;1.00
1011;DHT22;494;48.744;10.106;2023-09-19T15:18:06;30.30;1.00
1011;DHT22;494;48.744;10.106;2023-09-19T15:20:36;29.90;1.00
1011;DHT22;494;48.744;10.106;2023-09-19T15:23:18;29.40;1.00
1011;DHT22;494;48.744;10.106;2023-09-19T15:25:59;28.90;1.00
1011;DHT22;494;48.744;10.106;2023-09-19T15:28:56;28.60;1.00
1011;DHT22;494;48.744;10.106;2023-09-19T15:31:32;28.40;1.00
1011;DHT22;494;48.744;10.106;2023-09-19T15:34:20;28.20;1.00
1011;DHT22;494;48.744;10.106;2023-09-19T15:36:50;28.50;1.00
1011;DHT22;494;48.744;10.106;2023-09-19T15:39:20;28.90;1.00
1011;DHT22;494;48.744;10.106;2023-09-19T15:41:50;29.30;1.00
1011;DHT22;494;48.744;10.106;2023-09-19T15:44:34;29.30;1.00
1011;DHT22;494;48.744;10.106;2023-09-19T15:47:06;29.20;1.00
1011;DHT22;494;48.744;10.106;2023-09-19T15:49:58;29.10;1.00
1011;DHT22;494;48.744;10.106;2023-09-19T15:52:28;28.80;1.00
1011;DHT22;494;48.744;10.106;2023-09-19T15:55:03;28.60;1.00
1011;DHT22;494;48.744;10.106;2023-09-19T15:57:34;28.50;1.00
1011;DHT22;494;48.744;10.106;2023-09-19T16:00:09;28.60;1.00
1011;DHT22;494;48.744;10.106;2023-09-19T16:02:52;28.80;1.00
1011;DHT22;494;48.744;10.106;2023-09-19T16:06:00;28.90;1.00
1011;DHT22;494;48.744;10.106;2023-09-19T16:08:41;28.80;1.00
1011;DHT22;494;48.744;10.106;2023-09-19T16:11:26;28.50;1.00
1011;DHT22;494;48.744;10.106;2023-09-19T16:14:13;28.00;1.00
1011;DHT22;494;48.744;10.106;2023-09-19T16:17:26;27.50;1.00
1011;DHT22;494;48.744;10.106;2023-09-19T16:20:13;27.10;1.00
1011;DHT22;494;48.744;10.106;2023-09-19T16:23:30;26.80;1.00
1011;DHT22;494;48.744;10.106;2023-09-19T16:26:17;26.60;1.00
1011;DHT22;494;48.744;10.106;2023-09-19T16:29:02;26.40;1.00
1011;DHT22;494;48.744;10.106;2023-09-19T16:31:46;26.20;1.00
1011;DHT22;494;48.744;10.106;2023-09-19T16:34:17;25.80;1.00
1011;DHT22;494;48.744;10.106;2023-09-19T16:36:48;25.60;1.00
1011;DHT22;494;48.744;10.106;2023-09-19T16:42:40;25.10;1.00
1011;DHT22;494;48.744;10.106;2023-09-19T16:45:25;25.00;1.00
1011;DHT22;494;48.744;10.106;2023-09-19T16:48:08;24.90;1.00
1011;DHT22;494;48.744;10.106;2023-09-19T16:50:54;24.50;1.00
1011;DHT22;494;48.744;10.106;2023-09-19T16:53:40;24.00;1.00
1011;DHT22;494;48.744;10.106;2023-09-19T16:56:29;23.60;1.00
1011;DHT22;494;48.744;10.106;2023-09-19T16:59:13;23.30;1.00
1011;DHT22;494;48.744;10.106;2023-09-19T17:01:58;22.90;1.00
1011;DHT22;494;48.744;10.106;2023-09-19T17:04:36;22.60;1.00
1011;DHT22;494;48.744;10.106;2023-09-19T17:07:06;22.40;1.00
1011;DHT22;494;48.744;10.106;2023-09-19T17:10:00;22.20;1.00
1011;DHT22;494;48.744;10.106;2023-09-19T17:12:55;21.90;1.00
1011;DHT22;494;48.744;10.106;2023-09-19T17:15:24;21.70;1.00
1011;DHT22;494;48.744;10.106;2023-09-19T17:17:54;21.50;1.00
1011;DHT22;494;48.744;10.106;2023-09-19T17:20:29;21.30;1.00
1011;DHT22;494;48.744;10.106;2023-09-19T17:27:38;20.90;1.00
1011;DHT22;494;48.744;10.106;2023-09-19T17:30:18;20.60;1.00
1011;DHT22;494;48.744;10.106;2023-09-19T17:32:49;20.40;1.00
1011;DHT22;494;48.744;10.106;2023-09-19T17:35:20;20.30;1.00
1011;DHT22;494;48.744;10.106;2023-09-19T17:38:04;20.10;1.00
1011;DHT22;494;48.744;10.106;2023-09-19T17:41:05;19.90;1.00
1011;DHT22;494;48.744;10.106;2023-09-19T17:44:18;19.70;1.00
1011;DHT22;494;48.744;10.106;2023-09-19T17:51:05;19.60;1.00
1011;DHT22;494;48.744;10.106;2023-09-19T17:53:53;19.50;1.00
1011;DHT22;494;48.744;10.106;2023-09-19T17:56:51;19.40;1.00
1011;DHT22;494;48.744;10.106;2023-09-19T17:59:28;19.10;1.00
1011;DHT22;494;48.744;10.106;2023-09-19T18:02:20;18.90;1.00
1011;DHT22;494;48.744;10.106;2023-09-19T18:04:53;18.70;1.00
1011;DHT22;494;48.744;10.106;2023-09-19T18:15:21;18.40;1.00
1011;DHT22;494;48.744;10.106;2023-09-19T18:17:58;18.30;1.00
1011;DHT22;494;48.744;10.106;2023-09-19T18:20:33;18.10;1.00
1011;DHT22;494;48.744;10.106;2023-09-19T18:23:19;18.10;1.00
1011;DHT22;494;48.744;10.106;2023-09-19T18:26:13;18.10;1.00
1011;DHT22;494;48.744;10.106;2023-09-19T18:28:46;18.10;1.00
1011;DHT22;494;48.744;10.106;2023-09-19T18:31:27;18.20;1.00
1011;DHT22;494;48.744;10.106;2023-09-19T18:34:34;18.20;1.00
1011;DHT22;494;48.744;10.106;2023-09-19T18:43:17;18.20;1.00
1011;DHT22;494;48.744;10.106;2023-09-19T18:45:56;18.00;1.00
1011;DHT22;494;48.744;10.106;2023-09-19T18:48:32;17.90;1.00
1011;DHT22;494;48.744;10.106;2023-09-19T18:51:05;17.80;1.00
1011;DHT22;494;48.744;10.106;2023-09-19T18:53:38;17.80;1.00
1011;DHT22;494;48.744;10.106;2023-09-19T18:56:38;17.80;1.00
1011;DHT22;494;48.744;10.106;2023-09-19T18:59:10;17.60;1.00
1011;DHT22;494;48.744;10.106;2023-09-19T19:01:42;17.60;1.00
1011;DHT22;494;48.744;10.106;2023-09-19T19:04:20;17.60;1.00
1011;DHT22;494;48.744;10.106;2023-09-19T19:06:51;17.50;1.00
1011;DHT22;494;48.744;10.106;2023-09-19T19:09:22;17.50;1.00
1011;DHT22;494;48.744;10.106;2023-09-19T19:11:51;17.50;1.00
1011;DHT22;494;48.744;10.106;2023-09-19T19:14:20;17.50;1.00
1011;DHT22;494;48.744;10.106;2023-09-19T19:16:50;17.40;1.00
1011;DHT22;494;48.744;10.106;2023-09-19T19:19:25;17.30;1.00
1011;DHT22;494;48.744;10.106;2023-09-19T19:22:00;17.20;1.00
1011;DHT22;494;48.744;10.106;2023-09-19T19:24:31;17.10;1.00
1011;DHT22;494;48.744;10.106;2023-09-19T19:27:01;17.10;1.00
1011;DHT22;494;48.744;10.106;2023-09-19T19:29:34;17.10;1.00
1011;DHT22;494;48.744;10.106;2023-09-19T19:32:22;17.10;1.00
1011;DHT22;494;48.744;10.106;2023-09-19T19:35:07;17.00;1.00
1011;DHT22;494;48.744;10.106;2023-09-19T19:37:43;17.00;1.00
1011;DHT22;494;48.744;10.106;2023-09-19T19:40:24;17.00;1.00
1011;DHT22;494;48.744;10.106;2023-09-19T19:42:53;17.00;1.00
1011;DHT22;494;48.744;10.106;2023-09-19T19:45:24;17.00;1.00
1011;DHT22;494;48.744;10.106;2023-09-19T19:47:54;17.00;1.00
1011;DHT22;494;48.744;10.106;2023-09-19T19:50:34;17.00;1.00
1011;DHT22;494;48.744;10.106;2023-09-19T19:53:12;16.90;1.00
1011;DHT22;494;48.744;10.106;2023-09-19T19:55:42;16.90;1.00
1011;DHT22;494;48.744;10.106;2023-09-19T19:58:17;16.80;1.00
1011;DHT22;494;48.744;10.106;2023-09-19T20:00:53;16.80;1.00
1011;DHT22;494;48.744;10.106;2023-09-19T20:03:23;16.80;1.00
1011;DHT22;494;48.744;10.106;2023-09-19T20:05:56;16.70;1.00
1011;DHT22;494;48.744;10.106;2023-09-19T20:08:26;16.70;1.00
1011;DHT22;494;48.744;10.106;2023-09-19T20:11:03;16.60;1.00
1011;DHT22;494;48.744;10.106;2023-09-19T20:13:40;16.50;1.00
1011;DHT22;494;48.744;10.106;2023-09-19T20:16:10;16.40;1.00
1011;DHT22;494;48.744;10.106;2023-09-19T20:18:42;16.30;1.00
1011;DHT22;494;48.744;10.106;2023-09-19T20:21:25;16.30;1.00
1011;DHT22;494;48.744;10.106;2023-09-19T20:23:58;16.30;1.00
1011;DHT22;494;48.744;10.106;2023-09-19T20:26:35;16.30;1.00
1011;DHT22;494;48.744;10.106;2023-09-19T20:29:08;16.20;1.00
1011;DHT22;494;48.744;10.106;2023-09-19T20:31:38;16.10;1.00
1011;DHT22;494;48.744;10.106;2023-09-19T20:34:09;16.10;1.00
1011;DHT22;494;48.744;10.106;2023-09-19T20:36:50;16.10;1.00
1011;DHT22;494;48.744;10.106;2023-09-19T20:39:21;16.10;1.00
1011;DHT22;494;48.744;10.106;2023-09-19T20:41:54;16.10;1.00
1011;DHT22;494;48.744;10.106;2023-09-19T20:44:24;16.10;1.00
1011;DHT22;494;48.744;10.106;2023-09-19T20:46:56;16.00;1.00
1011;DHT22;494;48.744;10.106;2023-09-19T20:49:34;16.00;1.00
1011;DHT22;494;48.744;10.106;2023-09-19T20:52:08;15.90;1.00
1011;DHT22;494;48.744;10.106;2023-09-19T20:54:42;15.80;1.00
1011;DHT22;494;48.744;10.106;2023-09-19T20:57:15;15.80;1.00
1011;DHT22;494;48.744;10.106;2023-09-19T20:59:48;15.80;1.00